createdAt,value
2022-11-17T00:01:58.057Z,3.89
2022-11-17T00:04:28.048Z,3.84
2022-11-17T00:06:57.520Z,3.85
2022-11-17T00:09:29.515Z,3.88
2022-11-17T00:12:11.449Z,3.91
2022-11-17T00:14:41.409Z,3.86
2022-11-17T00:17:12.455Z,3.88
2022-11-17T00:19:54.698Z,3.89
2022-11-17T00:22:25.525Z,3.86
2022-11-17T00:24:57.624Z,3.89
2022-11-17T00:27:27.289Z,3.85
2022-11-17T00:29:57.054Z,3.88
2022-11-17T00:32:39.060Z,3.81
2022-11-17T00:35:09.434Z,3.88
2022-11-17T00:38:00.477Z,3.82
2022-11-17T00:40:34.401Z,3.81
2022-11-17T00:43:04.119Z,3.78
2022-11-17T00:45:33.630Z,3.73
2022-11-17T00:48:03.859Z,3.74
2022-11-17T00:50:33.338Z,3.72
2022-11-17T00:53:02.813Z,3.72
2022-11-17T00:55:34.955Z,3.71
2022-11-17T00:58:04.509Z,3.68
2022-11-17T01:00:34.124Z,3.72
2022-11-17T01:03:03.826Z,3.75
2022-11-17T01:05:33.367Z,3.84
2022-11-17T01:08:02.828Z,3.78
2022-11-17T01:10:37.139Z,3.74
2022-11-17T01:13:06.778Z,3.81
2022-11-17T01:15:36.351Z,3.78
2022-11-17T01:18:06.048Z,3.65
2022-11-17T01:20:36.131Z,3.63
2022-11-17T01:23:05.592Z,3.57
2022-11-17T01:25:38.238Z,3.56
2022-11-17T01:28:07.669Z,3.56
2022-11-17T01:30:37.730Z,3.56
2022-11-17T01:33:07.245Z,3.56
2022-11-17T01:35:37.440Z,3.54
2022-11-17T01:38:06.900Z,3.54
2022-11-17T01:40:39.424Z,3.51
2022-11-17T01:43:11.562Z,3.52
2022-11-17T01:45:41.372Z,3.43
2022-11-17T01:48:11.019Z,3.41
2022-11-17T01:50:42.528Z,3.38
2022-11-17T01:53:14.487Z,3.32
2022-11-17T01:55:49.057Z,3.29
2022-11-17T01:58:20.526Z,3.30
2022-11-17T02:00:50.274Z,3.30
2022-11-17T02:03:19.784Z,3.28
2022-11-17T02:05:53.292Z,3.24
2022-11-17T02:08:24.052Z,3.27
2022-11-17T02:10:56.588Z,3.29
2022-11-17T02:13:26.435Z,3.26
2022-11-17T02:15:55.953Z,3.26
2022-11-17T02:18:25.433Z,3.25
2022-11-17T02:21:04.503Z,3.20
2022-11-17T02:23:54.239Z,3.21
2022-11-17T02:26:50.768Z,3.21
2022-11-17T02:29:27.272Z,3.19
2022-11-17T02:32:04.729Z,3.19
2022-11-17T02:34:38.237Z,3.19
2022-11-17T02:37:12.897Z,3.15
2022-11-17T02:39:46.834Z,3.09
2022-11-17T02:42:19.240Z,3.06
2022-11-17T02:44:55.446Z,3.06
2022-11-17T02:47:26.982Z,3.10
2022-11-17T02:49:58.203Z,3.05
2022-11-17T02:52:28.264Z,3.05
2022-11-17T02:55:02.779Z,2.99
2022-11-17T02:57:32.747Z,2.97
2022-11-17T03:00:06.900Z,2.99
2022-11-17T03:02:46.427Z,2.99
2022-11-17T03:05:18.174Z,2.98
2022-11-17T03:08:01.367Z,2.99
2022-11-17T03:10:37.794Z,2.96
2022-11-17T03:13:12.423Z,2.88
2022-11-17T03:15:51.137Z,2.90
2022-11-17T03:18:23.893Z,2.89
2022-11-17T03:21:01.268Z,2.93
2022-11-17T03:23:35.425Z,2.92
2022-11-17T03:26:05.635Z,2.88
2022-11-17T03:28:35.595Z,2.82
2022-11-17T03:31:09.805Z,2.85
2022-11-17T03:33:40.807Z,2.84
2022-11-17T03:36:13.379Z,2.86
2022-11-17T03:38:47.150Z,2.87
2022-11-17T03:41:17.175Z,2.79
2022-11-17T03:43:49.554Z,3.23
2022-11-17T03:46:22.747Z,3.52
2022-11-17T03:48:56.848Z,3.65
2022-11-17T03:51:27.673Z,3.88
2022-11-17T03:53:57.531Z,3.41
2022-11-17T03:56:34.080Z,3.08
2022-11-17T03:59:06.344Z,3.01
2022-11-17T04:01:39.683Z,3.10
2022-11-17T04:04:09.187Z,3.02
2022-11-17T04:06:38.572Z,2.94
2022-11-17T04:09:08.041Z,3.01
2022-11-17T04:11:49.924Z,2.94
2022-11-17T04:14:31.801Z,2.90
2022-11-17T04:17:04.015Z,2.96
2022-11-17T04:19:33.477Z,2.95
2022-11-17T04:22:02.886Z,2.90
2022-11-17T04:24:32.263Z,2.82
2022-11-17T04:27:14.123Z,2.73
2022-11-17T04:29:43.757Z,2.72
2022-11-17T04:32:16.225Z,2.72
2022-11-17T04:34:45.731Z,2.68
2022-11-17T04:37:17.559Z,2.68
2022-11-17T04:39:47.535Z,2.61
2022-11-17T04:42:14.381Z,2.62
2022-11-17T04:44:43.796Z,2.59
2022-11-17T04:47:15.787Z,2.62
2022-11-17T04:49:45.192Z,2.66
2022-11-17T04:52:14.600Z,2.66
2022-11-17T04:54:44.061Z,2.68
2022-11-17T04:57:13.475Z,2.60
2022-11-17T04:59:42.840Z,2.60
2022-11-17T05:02:14.894Z,2.58
2022-11-17T05:04:59.420Z,2.54
2022-11-17T05:07:28.821Z,2.56
2022-11-17T05:09:58.249Z,2.61
2022-11-17T05:12:40.132Z,2.58
2022-11-17T05:15:10.655Z,2.58
2022-11-17T05:17:40.017Z,2.58
2022-11-17T05:20:10.501Z,2.53
2022-11-17T05:22:52.463Z,2.50
2022-11-17T05:25:21.918Z,2.48
2022-11-17T05:27:51.326Z,2.47
2022-11-17T05:30:20.974Z,2.45
2022-11-17T05:32:52.997Z,2.45
2022-11-17T05:35:22.393Z,2.47
2022-11-17T05:37:51.806Z,2.47
2022-11-17T05:40:21.323Z,2.44
2022-11-17T05:42:55.804Z,2.42
2022-11-17T05:45:26.511Z,2.42
2022-11-17T05:47:58.491Z,2.40
2022-11-17T05:50:27.973Z,2.43
2022-11-17T05:52:57.343Z,2.46
2022-11-17T05:55:27.235Z,2.46
2022-11-17T05:57:57.474Z,2.46
2022-11-17T06:00:27.002Z,2.43
2022-11-17T06:03:02.105Z,2.41
2022-11-17T06:05:31.522Z,2.46
2022-11-17T06:08:01.049Z,2.40
2022-11-17T06:10:30.897Z,2.38
2022-11-17T06:13:00.369Z,2.38
2022-11-17T06:15:29.785Z,2.37
2022-11-17T06:18:03.224Z,2.42
2022-11-17T06:20:36.404Z,2.41
2022-11-17T06:23:07.815Z,2.42
2022-11-17T06:25:38.501Z,2.40
2022-11-17T06:28:12.132Z,2.39
2022-11-17T06:30:41.983Z,2.37
2022-11-17T06:33:16.503Z,2.42
2022-11-17T06:35:47.073Z,2.35
2022-11-17T06:38:16.509Z,2.36
2022-11-17T06:40:45.950Z,2.35
2022-11-17T06:43:15.369Z,2.35
2022-11-17T06:45:46.339Z,2.34
2022-11-17T06:48:25.219Z,2.32
2022-11-17T06:50:54.588Z,2.28
2022-11-17T06:53:26.655Z,2.27
2022-11-17T06:56:03.204Z,2.29
2022-11-17T06:58:33.529Z,2.28
2022-11-17T07:01:10.621Z,2.29
2022-11-17T07:03:43.852Z,2.33
2022-11-17T07:06:13.725Z,2.34
2022-11-17T07:08:43.214Z,2.29
2022-11-17T07:11:15.006Z,2.31
2022-11-17T07:13:44.405Z,2.27
2022-11-17T07:16:21.672Z,2.25
2022-11-17T07:18:55.552Z,2.24
2022-11-17T07:21:25.176Z,2.27
2022-11-17T07:23:54.668Z,2.28
2022-11-17T07:26:24.100Z,2.24
2022-11-17T07:28:53.563Z,2.22
2022-11-17T07:31:23.274Z,2.23
2022-11-17T07:33:55.970Z,2.29
2022-11-17T07:36:25.768Z,2.31
2022-11-17T07:38:55.154Z,2.31
2022-11-17T07:41:24.580Z,2.31
2022-11-17T07:43:54.011Z,2.32
2022-11-17T07:46:23.451Z,2.29
2022-11-17T07:48:56.114Z,2.33
2022-11-17T07:51:26.405Z,2.32
2022-11-17T07:53:56.173Z,2.32
2022-11-17T07:56:25.614Z,2.80
2022-11-17T07:58:56.492Z,3.06
2022-11-17T08:01:27.490Z,3.19
2022-11-17T08:03:59.781Z,3.36
2022-11-17T08:06:29.415Z,3.59
2022-11-17T08:08:59.128Z,3.30
2022-11-17T08:11:31.318Z,2.88
2022-11-17T08:14:00.763Z,2.72
2022-11-17T08:16:30.896Z,2.73
2022-11-17T08:19:04.230Z,2.61
2022-11-17T08:21:33.694Z,2.59
2022-11-17T08:24:03.158Z,2.53
2022-11-17T08:26:32.671Z,2.46
2022-11-17T08:29:02.123Z,2.33
2022-11-17T08:31:31.558Z,2.40
2022-11-17T08:34:03.627Z,2.45
2022-11-17T08:36:33.065Z,2.46
2022-11-17T08:39:02.517Z,2.41
2022-11-17T08:41:32.174Z,2.43
2022-11-17T08:44:01.611Z,2.42
2022-11-17T08:46:31.112Z,2.35
2022-11-17T08:49:03.961Z,2.37
2022-11-17T08:51:33.489Z,2.34
2022-11-17T08:54:03.016Z,2.38
2022-11-17T08:56:32.568Z,2.37
2022-11-17T08:59:02.075Z,2.39
2022-11-17T09:01:31.936Z,2.35
2022-11-17T09:04:05.338Z,2.37
2022-11-17T09:06:34.934Z,2.38
2022-11-17T09:09:04.702Z,2.38
2022-11-17T09:11:34.298Z,2.42
2022-11-17T09:14:03.790Z,2.40
2022-11-17T09:16:33.409Z,2.42
2022-11-17T09:19:05.615Z,2.45
2022-11-17T09:21:35.386Z,2.43
2022-11-17T09:24:04.860Z,2.48
2022-11-17T09:26:35.490Z,2.48
2022-11-17T09:29:05.542Z,2.49
2022-11-17T09:31:34.987Z,2.52
2022-11-17T09:34:08.118Z,2.54
2022-11-17T09:36:37.929Z,2.64
2022-11-17T09:39:07.504Z,2.66
2022-11-17T09:41:40.815Z,2.62
2022-11-17T09:44:18.378Z,2.66
2022-11-17T09:46:59.479Z,2.79
2022-11-17T09:49:37.298Z,2.81
2022-11-17T09:52:12.310Z,2.78
2022-11-17T09:54:46.578Z,2.85
2022-11-17T09:57:23.539Z,2.73
2022-11-17T09:59:57.447Z,2.93
2022-11-17T10:02:27.687Z,2.83
2022-11-17T10:04:59.888Z,2.84
2022-11-17T10:07:29.592Z,2.82
2022-11-17T10:09:59.617Z,2.89
2022-11-17T10:12:36.042Z,2.96
2022-11-17T10:15:23.063Z,3.05
2022-11-17T10:17:53.560Z,3.03
2022-11-17T10:20:25.739Z,3.00
2022-11-17T10:22:56.423Z,3.02
2022-11-17T10:25:39.423Z,3.01
2022-11-17T10:28:10.534Z,3.15
2022-11-17T10:30:40.105Z,3.05
2022-11-17T10:33:09.590Z,3.09
2022-11-17T10:35:42.694Z,3.12
2022-11-17T10:38:20.976Z,3.12
2022-11-17T10:40:51.813Z,3.20
2022-11-17T10:43:26.813Z,3.17
2022-11-17T10:45:57.607Z,3.17
2022-11-17T10:48:29.877Z,3.20
2022-11-17T10:51:03.376Z,3.18
2022-11-17T10:53:45.109Z,3.16
2022-11-17T10:56:19.003Z,3.18
2022-11-17T10:59:00.759Z,3.04
2022-11-17T11:01:31.988Z,3.15
2022-11-17T11:04:02.091Z,3.20
2022-11-17T11:06:35.206Z,3.53
2022-11-17T11:09:07.554Z,3.63
2022-11-17T11:11:48.152Z,3.60
2022-11-17T11:14:27.411Z,3.44
2022-11-17T11:16:57.579Z,3.22
2022-11-17T11:19:27.298Z,3.04
2022-11-17T11:22:16.942Z,3.09
2022-11-17T11:24:54.533Z,2.93
2022-11-17T11:27:34.198Z,2.91
2022-11-17T11:30:06.549Z,2.86
2022-11-17T11:32:44.042Z,2.86
2022-11-17T11:35:36.614Z,2.88
2022-11-17T11:38:17.743Z,2.84
2022-11-17T11:40:57.662Z,2.86
2022-11-17T11:43:34.309Z,2.84
2022-11-17T11:46:11.395Z,2.79
2022-11-17T11:48:43.487Z,2.79
2022-11-17T11:51:18.162Z,2.78
2022-11-17T11:53:53.476Z,2.78
2022-11-17T11:56:25.660Z,2.78
2022-11-17T11:58:59.277Z,3.24
2022-11-17T12:01:29.782Z,3.91
2022-11-17T12:04:10.529Z,3.38
2022-11-17T12:06:46.124Z,3.22
2022-11-17T12:09:47.242Z,3.06
2022-11-17T12:12:18.818Z,3.09
2022-11-17T12:15:10.110Z,2.96
2022-11-17T12:17:40.232Z,2.84
2022-11-17T12:20:52.180Z,2.71
2022-11-17T12:23:37.546Z,2.67
2022-11-17T12:26:10.483Z,2.60
2022-11-17T12:28:41.061Z,2.67
2022-11-17T12:31:12.635Z,2.57
2022-11-17T12:34:17.758Z,2.53
2022-11-17T12:37:30.746Z,2.48
2022-11-17T12:40:10.754Z,2.48
2022-11-17T12:43:22.239Z,2.50
2022-11-17T12:46:26.326Z,2.46
2022-11-17T12:49:01.333Z,2.46
2022-11-17T12:51:37.980Z,2.51
2022-11-17T12:54:20.741Z,2.45
2022-11-17T12:56:56.719Z,2.44
2022-11-17T12:59:41.969Z,2.47
2022-11-17T13:02:21.304Z,2.50
2022-11-17T13:04:52.941Z,2.49
2022-11-17T13:07:25.577Z,2.49
2022-11-17T13:09:57.076Z,2.52
2022-11-17T13:12:27.970Z,2.44
2022-11-17T13:15:02.817Z,2.44
2022-11-17T13:17:36.019Z,2.49
2022-11-17T13:20:07.969Z,2.49
2022-11-17T13:22:41.812Z,2.43
2022-11-17T13:25:24.617Z,2.45
2022-11-17T13:27:58.497Z,2.49
2022-11-17T13:30:34.816Z,2.36
2022-11-17T13:33:05.389Z,2.39
2022-11-17T13:35:37.287Z,2.40
2022-11-17T13:38:09.469Z,2.41
2022-11-17T13:40:39.913Z,2.35
2022-11-17T13:43:14.381Z,2.35
2022-11-17T13:45:47.330Z,2.31
2022-11-17T13:48:35.123Z,2.32
2022-11-17T13:51:24.904Z,2.31
2022-11-17T13:53:57.062Z,2.24
2022-11-17T13:56:28.758Z,2.30
2022-11-17T13:58:58.799Z,2.23
2022-11-17T14:01:33.421Z,2.17
2022-11-17T14:04:20.143Z,2.21
2022-11-17T14:06:58.264Z,2.17
2022-11-17T14:09:28.733Z,2.19
2022-11-17T14:11:58.667Z,2.22
2022-11-17T14:14:37.250Z,2.23
2022-11-17T14:17:22.743Z,2.16
2022-11-17T14:19:52.282Z,2.13
2022-11-17T14:22:31.414Z,2.14
2022-11-17T14:25:01.513Z,2.12
2022-11-17T14:27:42.319Z,2.11
2022-11-17T14:30:14.931Z,2.11
2022-11-17T14:32:47.116Z,2.14
2022-11-17T14:37:47.592Z,2.10
2022-11-17T14:40:17.829Z,2.11
2022-11-17T14:42:47.314Z,2.13
2022-11-17T14:45:17.815Z,2.18
2022-11-17T14:47:50.095Z,2.13
2022-11-17T14:50:20.128Z,2.14
2022-11-17T14:52:49.635Z,2.17
2022-11-17T14:55:19.686Z,2.27
2022-11-17T14:57:50.422Z,2.23
2022-11-17T15:00:21.429Z,2.37
2022-11-17T15:02:54.273Z,2.23
2022-11-17T15:05:23.905Z,2.33
2022-11-17T15:07:53.426Z,2.28
2022-11-17T15:10:23.329Z,2.24
2022-11-17T15:12:52.879Z,2.34
2022-11-17T15:15:22.613Z,2.30
2022-11-17T15:17:54.755Z,2.26
2022-11-17T15:20:24.217Z,2.27
2022-11-17T15:22:54.581Z,2.28
2022-11-17T15:25:26.348Z,2.22
2022-11-17T15:27:56.311Z,2.33
2022-11-17T15:30:26.053Z,2.33
2022-11-17T15:33:01.185Z,2.34
2022-11-17T15:35:30.667Z,2.33
2022-11-17T15:38:00.189Z,2.40
2022-11-17T15:40:29.684Z,2.47
2022-11-17T15:42:59.203Z,2.42
2022-11-17T15:45:28.874Z,2.31
2022-11-17T15:48:00.949Z,2.72
2022-11-17T15:50:30.512Z,3.28
2022-11-17T15:53:04.520Z,3.04
2022-11-17T15:55:36.643Z,3.68
2022-11-17T15:58:06.201Z,3.31
2022-11-17T16:00:36.038Z,3.06
2022-11-17T16:03:08.355Z,3.04
2022-11-17T16:05:37.888Z,3.01
2022-11-17T16:08:07.822Z,3.54
2022-11-17T16:10:37.459Z,3.39
2022-11-17T16:13:07.025Z,3.24
2022-11-17T16:15:36.580Z,3.75
2022-11-17T16:18:09.068Z,3.36
2022-11-17T16:20:38.648Z,2.96
2022-11-17T16:23:08.186Z,3.32
2022-11-17T16:25:42.564Z,2.91
2022-11-17T16:28:13.234Z,2.80
2022-11-17T16:30:43.263Z,2.63
2022-11-17T16:33:16.867Z,2.58
2022-11-17T16:35:46.442Z,2.59
2022-11-17T16:38:16.976Z,2.68
2022-11-17T16:40:46.630Z,2.58
2022-11-17T16:43:16.519Z,2.53
2022-11-17T16:45:47.665Z,2.51
2022-11-17T16:48:19.801Z,2.47
2022-11-17T16:50:49.638Z,2.49
2022-11-17T16:53:19.205Z,2.42
2022-11-17T16:55:48.776Z,2.48
2022-11-17T16:58:18.368Z,2.31
2022-11-17T17:00:48.181Z,2.42
2022-11-17T17:03:22.159Z,2.36
2022-11-17T17:05:51.806Z,2.27
2022-11-17T17:08:21.200Z,2.32
2022-11-17T17:10:50.714Z,3.08
2022-11-17T17:13:20.237Z,3.31
2022-11-17T17:15:49.850Z,3.20
2022-11-17T17:18:22.061Z,2.78
2022-11-17T17:20:53.193Z,2.48
2022-11-17T17:23:22.763Z,2.54
2022-11-17T17:25:52.225Z,2.55
2022-11-17T17:28:21.751Z,2.45
2022-11-17T17:30:56.439Z,2.37
2022-11-17T17:33:28.613Z,2.24
2022-11-17T17:35:58.135Z,2.36
2022-11-17T17:38:27.853Z,2.25
2022-11-17T17:40:57.434Z,2.20
2022-11-17T17:43:27.075Z,2.33
2022-11-17T17:46:01.958Z,2.38
2022-11-17T17:48:34.803Z,2.34
2022-11-17T17:51:04.986Z,2.31
2022-11-17T17:53:34.625Z,2.43
2022-11-17T17:56:06.003Z,2.36
2022-11-17T17:58:40.368Z,2.32
2022-11-17T18:01:11.798Z,2.35
2022-11-17T18:03:45.897Z,2.29
2022-11-17T18:06:15.816Z,2.36
2022-11-17T18:08:45.673Z,2.39
2022-11-17T18:11:17.084Z,2.32
2022-11-17T18:13:47.676Z,2.36
2022-11-17T18:16:19.582Z,2.32
2022-11-17T18:18:52.346Z,2.17
2022-11-17T18:21:22.177Z,2.15
2022-11-17T18:23:51.795Z,2.28
2022-11-17T18:26:23.383Z,2.26
2022-11-17T18:28:54.705Z,2.30
2022-11-17T18:31:25.217Z,2.43
2022-11-17T18:33:59.213Z,2.48
2022-11-17T18:36:30.001Z,2.49
2022-11-17T18:39:00.261Z,2.39
2022-11-17T18:41:32.204Z,2.55
2022-11-17T18:44:01.655Z,2.49
2022-11-17T18:46:33.126Z,2.70
2022-11-17T18:49:05.275Z,2.69
2022-11-17T18:51:35.993Z,2.53
2022-11-17T18:54:05.965Z,2.45
2022-11-17T18:56:38.003Z,2.48
2022-11-17T18:59:12.541Z,2.39
2022-11-17T19:01:43.616Z,2.55
2022-11-17T19:04:16.765Z,2.69
2022-11-17T19:06:46.719Z,2.50
2022-11-17T19:09:17.903Z,2.31
2022-11-17T19:11:47.741Z,2.23
2022-11-17T19:14:17.248Z,2.13
2022-11-17T19:16:46.937Z,1.97
2022-11-17T19:19:19.590Z,1.93
2022-11-17T19:21:49.712Z,1.88
2022-11-17T19:24:19.676Z,1.89
2022-11-17T19:26:49.251Z,1.84
2022-11-17T19:29:20.230Z,1.78
2022-11-17T19:31:52.432Z,1.73
2022-11-17T19:34:24.700Z,1.71
2022-11-17T19:36:54.210Z,1.69
2022-11-17T19:39:23.630Z,1.66
2022-11-17T19:41:53.867Z,1.72
2022-11-17T19:44:23.308Z,1.69
2022-11-17T19:46:52.792Z,1.63
2022-11-17T19:49:24.965Z,1.60
2022-11-17T19:51:54.523Z,1.58
2022-11-17T19:54:24.014Z,1.54
2022-11-17T19:56:53.510Z,1.52
2022-11-17T19:59:23.189Z,1.54
2022-11-17T20:01:53.087Z,1.52
2022-11-17T20:04:25.266Z,1.53
2022-11-17T20:06:55.440Z,1.53
2022-11-17T20:09:25.345Z,1.54
2022-11-17T20:11:54.874Z,1.44
2022-11-17T20:14:24.354Z,1.58
2022-11-17T20:16:53.880Z,1.90
2022-11-17T20:19:25.959Z,2.43
2022-11-17T20:21:55.460Z,2.39
2022-11-17T20:24:24.953Z,2.82
2022-11-17T20:26:54.405Z,2.77
2022-11-17T20:29:23.856Z,2.66
2022-11-17T20:31:53.394Z,3.08
2022-11-17T20:34:22.801Z,3.16
2022-11-17T20:36:54.843Z,2.61
2022-11-17T20:39:24.241Z,2.54
2022-11-17T20:41:53.767Z,2.25
2022-11-17T20:44:28.769Z,1.93
2022-11-17T20:46:58.583Z,1.83
2022-11-17T20:49:28.900Z,1.64
2022-11-17T20:52:01.017Z,1.66
2022-11-17T20:54:30.504Z,1.78
2022-11-17T20:57:00.006Z,1.54
2022-11-17T20:59:29.477Z,1.33
2022-11-17T21:01:59.103Z,1.24
2022-11-17T21:04:28.550Z,1.15
2022-11-17T21:06:58.115Z,1.12
2022-11-17T21:09:30.239Z,1.12
2022-11-17T21:12:00.152Z,1.07
2022-11-17T21:14:30.648Z,1.02
2022-11-17T21:17:00.585Z,0.97
2022-11-17T21:19:33.238Z,0.94
2022-11-17T21:22:04.905Z,0.86
2022-11-17T21:24:36.971Z,0.82
2022-11-17T21:27:06.646Z,0.82
2022-11-17T21:29:36.152Z,0.82
2022-11-17T21:32:05.697Z,0.81
2022-11-17T21:34:35.314Z,0.80
2022-11-17T21:37:04.801Z,0.77
2022-11-17T21:39:37.659Z,0.78
2022-11-17T21:42:07.306Z,0.79
2022-11-17T21:44:36.735Z,0.80
2022-11-17T21:47:07.881Z,0.78
2022-11-17T21:49:37.298Z,0.80
2022-11-17T21:52:07.111Z,0.73
2022-11-17T21:54:39.295Z,0.75
2022-11-17T21:57:08.809Z,0.76
2022-11-17T21:59:38.309Z,0.73
2022-11-17T22:02:07.814Z,0.72
2022-11-17T22:04:37.233Z,0.77
2022-11-17T22:07:06.955Z,0.79
2022-11-17T22:09:39.433Z,0.84
2022-11-17T22:12:09.561Z,0.86
2022-11-17T22:14:39.061Z,0.86
2022-11-17T22:17:08.548Z,0.87
2022-11-17T22:19:38.038Z,0.88
2022-11-17T22:22:08.160Z,0.87
2022-11-17T22:24:40.529Z,0.89
2022-11-17T22:27:11.124Z,0.85
2022-11-17T22:29:40.601Z,0.88
2022-11-17T22:32:10.093Z,0.85
2022-11-17T22:34:39.579Z,0.86
2022-11-17T22:37:09.113Z,0.89
2022-11-17T22:39:41.461Z,0.84
2022-11-17T22:42:11.002Z,0.80
2022-11-17T22:44:40.513Z,0.83
2022-11-17T22:47:09.942Z,0.79
2022-11-17T22:49:39.382Z,0.77
2022-11-17T22:52:10.336Z,0.71
2022-11-17T22:54:42.557Z,0.70
2022-11-17T22:57:12.196Z,0.69
2022-11-17T22:59:41.724Z,0.66
2022-11-17T23:02:11.212Z,0.68
2022-11-17T23:04:40.773Z,0.63
2022-11-17T23:07:10.883Z,0.60
2022-11-17T23:09:43.320Z,0.67
2022-11-17T23:12:12.847Z,0.53
2022-11-17T23:14:42.418Z,0.44
2022-11-17T23:17:12.000Z,0.46
2022-11-17T23:19:41.578Z,0.45
2022-11-17T23:22:11.795Z,0.43
2022-11-17T23:24:43.843Z,0.41
2022-11-17T23:27:13.387Z,0.48
2022-11-17T23:29:42.814Z,0.40
2022-11-17T23:32:12.342Z,0.43
2022-11-17T23:34:42.097Z,0.40
2022-11-17T23:37:11.600Z,0.33
2022-11-17T23:39:44.410Z,0.31
2022-11-17T23:42:14.304Z,0.32
2022-11-17T23:44:43.794Z,0.32
2022-11-17T23:47:13.459Z,0.33
2022-11-17T23:49:42.996Z,0.30
2022-11-17T23:52:12.478Z,0.27
2022-11-17T23:54:44.597Z,0.20
2022-11-17T23:57:14.066Z,0.19
2022-11-17T23:59:43.638Z,0.16
